KCLE/CLE METAR and TAF weather

Enter ICAO airport designator
Station Type Date Time Source
KCLE METAR 2019/02/23 01:51 UTC NOAA

KCLE 230151Z 02004KT 10SM OVC250 M01/M04 A3043 RMK AO2 SLP314 T10061039


Station Type Date Time Source
KCLE Decoded METAR 2019/02/23 01:51 UTC NOAA

CLEVELAND-HOPKINS INTERNATIONAL , OH, United States (KCLE) 41-24N 081-51W 236M
Feb 22, 2019 - 08:51 PM EST / 2019.02.23 0151 UTC
Wind: from the NNE (020 degrees) at 5 MPH (4 KT):0
Visibility: 10 mile(s):0
Sky conditions: overcast
Temperature: 30.9 F (-0.6 C)
Windchill: 26 F (-3 C):1
Dew Point: 25.0 F (-3.9 C)
Relative Humidity: 78%
Pressure (altimeter): 30.43 in. Hg (1030 hPa)
ob: KCLE 230151Z 02004KT 10SM OVC250 M01/M04 A3043 RMK AO2 SLP314 T10061039
cycle: 2

Station Type Date Time Source
KCLE TAF 2019/02/22 20:18 UTC NOAA

TAF
AMD KCLE 222016Z 2220/2324 03005KT P6SM FEW110 SCT250
FM231300 11006KT P6SM OVC110
FM231800 13010KT P6SM BKN050 OVC100


Example: see airport list